Lu Shan, China
Current Conditions -  °F | °C
As of 12:00 PM on Thursday 18 Dec 2014 (Local Time) from ZHHH Reporting Station
Clear Clear  
Wind Chill: 42°   Ceiling: Unl
Heat Index: 46°   Visibility: 4mi
Dew Point: 25°   Wind: 9mph
Humidity: 43%   Direction: 120°ESE
Pressure: 30.48"   Gusts: NA
Location:  29.58°N, 115.98°E
Report Text: ZHHH 180400Z 12004MPS 070V180 7000 NSC 08/M04 Q1032 NOSIG
Loading
Personal Weather Stations






























Interactive Weather Map New forecast layout! Learn more

10-Day Weather Forecast

Advertisements
Track Severe Weather on mobile